createdAt,value
2022-07-28T00:02:21.077Z,85.77
2022-07-28T00:04:48.095Z,86.41
2022-07-28T00:07:14.887Z,86.34
2022-07-28T00:09:41.525Z,86.20
2022-07-28T00:12:08.694Z,87.22
2022-07-28T00:14:35.642Z,86.68
2022-07-28T00:17:02.592Z,86.39
2022-07-28T00:19:29.263Z,86.65
2022-07-28T00:21:55.909Z,86.14
2022-07-28T00:24:24.212Z,86.04
2022-07-28T00:26:50.839Z,86.12
2022-07-28T00:29:17.681Z,86.49
2022-07-28T00:31:44.409Z,86.96
2022-07-28T00:34:12.361Z,87.10
2022-07-28T00:36:39.425Z,87.38
2022-07-28T00:39:06.448Z,87.59
2022-07-28T00:41:33.427Z,88.08
2022-07-28T00:44:00.091Z,88.47
2022-07-28T00:46:27.127Z,87.86
2022-07-28T00:48:55.268Z,88.42
2022-07-28T00:51:25.588Z,88.23
2022-07-28T00:53:53.022Z,88.33
2022-07-28T00:56:20.576Z,88.45
2022-07-28T00:58:48.248Z,88.86
2022-07-28T01:01:17.852Z,89.07
2022-07-28T01:03:48.155Z,89.05
2022-07-28T01:06:36.672Z,89.07
2022-07-28T01:09:42.273Z,89.01
2022-07-28T01:12:41.075Z,89.69
2022-07-28T01:15:25.526Z,89.85
2022-07-28T01:18:16.980Z,90.00
2022-07-28T01:21:20.899Z,89.75
2022-07-28T01:24:16.810Z,89.40
2022-07-28T01:27:05.980Z,90.15
2022-07-28T01:30:11.031Z,90.29
2022-07-28T01:32:46.184Z,90.16
2022-07-28T01:35:41.651Z,90.74
2022-07-28T01:38:11.651Z,91.21
2022-07-28T01:40:40.760Z,91.95
2022-07-28T01:43:13.355Z,91.93
2022-07-28T01:45:42.634Z,92.70
2022-07-28T01:48:11.339Z,92.59
2022-07-28T01:50:40.716Z,92.25
2022-07-28T01:53:12.006Z,92.28
2022-07-28T01:55:39.695Z,92.05
2022-07-28T01:58:07.741Z,91.79
2022-07-28T02:00:35.476Z,92.56
2022-07-28T02:03:06.046Z,92.37
2022-07-28T02:05:35.305Z,92.32
2022-07-28T02:08:05.356Z,92.30
2022-07-28T02:10:33.343Z,92.24
2022-07-28T02:13:01.876Z,92.42
2022-07-28T02:15:31.417Z,92.54
2022-07-28T02:17:59.725Z,92.75
2022-07-28T02:20:26.523Z,93.07
2022-07-28T02:22:54.105Z,93.06
2022-07-28T02:25:21.810Z,93.20
2022-07-28T02:27:57.200Z,92.94
2022-07-28T02:30:38.354Z,92.36
2022-07-28T02:33:14.913Z,92.52
2022-07-28T02:36:10.157Z,92.67
2022-07-28T02:38:51.012Z,93.06
2022-07-28T02:41:27.360Z,93.25
2022-07-28T02:43:58.170Z,92.73
2022-07-28T02:46:29.201Z,92.93
2022-07-28T02:49:03.369Z,93.08
2022-07-28T02:51:33.252Z,93.00
2022-07-28T02:54:01.220Z,92.54
2022-07-28T02:56:30.279Z,93.44
2022-07-28T02:58:58.626Z,93.48
2022-07-28T03:01:25.838Z,94.03
2022-07-28T03:03:55.362Z,94.10
2022-07-28T03:06:28.415Z,94.34
2022-07-28T03:08:56.711Z,94.30
2022-07-28T03:11:23.324Z,94.32
2022-07-28T03:13:49.953Z,94.12
2022-07-28T03:16:16.725Z,93.95
2022-07-28T03:18:43.512Z,94.14
2022-07-28T03:21:10.279Z,94.56
2022-07-28T03:23:47.903Z,94.30
2022-07-28T03:26:21.223Z,94.20
2022-07-28T03:28:48.888Z,93.86
2022-07-28T03:31:16.832Z,93.16
2022-07-28T03:33:43.577Z,93.32
2022-07-28T03:36:15.670Z,93.86
2022-07-28T03:39:02.950Z,94.01
2022-07-28T03:41:32.322Z,94.00
2022-07-28T03:44:00.411Z,95.02
2022-07-28T03:46:28.193Z,94.01
2022-07-28T03:48:55.445Z,93.88
2022-07-28T03:51:22.764Z,93.81
2022-07-28T03:53:49.663Z,93.56
2022-07-28T03:56:16.480Z,93.98
2022-07-28T03:58:43.175Z,93.10
2022-07-28T04:01:09.867Z,92.93
2022-07-28T04:03:43.887Z,93.43
2022-07-28T04:06:15.642Z,92.95
2022-07-28T04:08:43.539Z,93.18
2022-07-28T04:11:10.242Z,93.45
2022-07-28T04:13:37.382Z,93.40
2022-07-28T04:16:05.142Z,93.50
2022-07-28T04:18:32.028Z,93.49
2022-07-28T04:20:58.787Z,93.43
2022-07-28T04:23:25.583Z,92.68
2022-07-28T04:25:52.298Z,92.90
2022-07-28T04:28:19.028Z,93.03
2022-07-28T04:30:45.977Z,93.27
2022-07-28T04:33:12.928Z,92.76
2022-07-28T04:35:39.689Z,92.70
2022-07-28T04:38:06.381Z,92.25
2022-07-28T04:40:34.454Z,91.91
2022-07-28T04:43:01.657Z,91.80
2022-07-28T04:45:28.420Z,91.71
2022-07-28T04:47:55.122Z,91.08
2022-07-28T04:50:21.841Z,90.77
2022-07-28T04:52:49.867Z,91.49
2022-07-28T04:55:17.474Z,91.83
2022-07-28T04:57:44.205Z,91.63
2022-07-28T05:00:14.850Z,91.39
2022-07-28T05:02:43.434Z,90.96
2022-07-28T05:05:10.936Z,91.45
2022-07-28T05:07:38.717Z,91.00
2022-07-28T05:10:06.984Z,90.80
2022-07-28T05:12:33.954Z,91.08
2022-07-28T05:15:00.950Z,91.03
2022-07-28T05:17:27.656Z,90.80
2022-07-28T05:19:54.330Z,89.87
2022-07-28T05:22:21.218Z,89.85
2022-07-28T05:24:47.885Z,90.21
2022-07-28T05:27:14.479Z,90.20
2022-07-28T05:29:47.314Z,89.41
2022-07-28T05:32:16.202Z,89.71
2022-07-28T05:34:44.550Z,89.64
2022-07-28T05:37:11.204Z,89.03
2022-07-28T05:39:37.808Z,87.63
2022-07-28T05:42:04.853Z,87.38
2022-07-28T05:44:37.254Z,87.28
2022-07-28T05:47:06.291Z,86.94
2022-07-28T05:49:33.109Z,86.17
2022-07-28T05:51:59.704Z,85.52
2022-07-28T05:54:26.832Z,84.93
2022-07-28T05:56:53.532Z,84.80
2022-07-28T05:59:20.244Z,84.18
2022-07-28T06:01:47.053Z,83.98
2022-07-28T06:04:26.544Z,83.81
2022-07-28T06:06:54.868Z,84.01
2022-07-28T06:09:21.537Z,82.94
2022-07-28T06:11:50.387Z,83.61
2022-07-28T06:14:17.940Z,82.72
2022-07-28T06:16:45.278Z,81.33
2022-07-28T06:19:12.563Z,81.98
2022-07-28T06:21:39.271Z,81.59
2022-07-28T06:24:08.532Z,81.55
2022-07-28T06:26:43.719Z,81.19
2022-07-28T06:29:11.396Z,79.82
2022-07-28T06:31:38.996Z,79.39
2022-07-28T06:34:05.909Z,79.41
2022-07-28T06:36:32.603Z,78.79
2022-07-28T06:38:59.275Z,77.84
2022-07-28T06:41:25.987Z,76.87
2022-07-28T06:43:52.810Z,76.92
2022-07-28T06:46:19.940Z,75.98
2022-07-28T06:48:46.744Z,75.16
2022-07-28T06:51:15.129Z,74.64
2022-07-28T06:53:41.795Z,74.58
2022-07-28T06:56:10.883Z,74.51
2022-07-28T06:58:40.668Z,72.57
2022-07-28T07:01:10.768Z,73.70
2022-07-28T07:03:37.423Z,72.93
2022-07-28T07:06:04.398Z,72.46
2022-07-28T07:08:31.145Z,72.25
2022-07-28T07:10:58.072Z,71.52
2022-07-28T07:13:24.921Z,70.86
2022-07-28T07:15:51.662Z,71.32
2022-07-28T07:18:18.402Z,71.80
2022-07-28T07:20:45.073Z,72.70
2022-07-28T07:23:11.818Z,72.59
2022-07-28T07:25:39.868Z,72.82
2022-07-28T07:28:06.562Z,71.52
2022-07-28T07:30:33.354Z,72.65
2022-07-28T07:33:00.021Z,71.12
2022-07-28T07:35:26.846Z,72.36
2022-07-28T07:37:56.065Z,72.34
2022-07-28T07:40:22.708Z,71.81
2022-07-28T07:42:49.400Z,70.73
2022-07-28T07:45:16.036Z,71.20
2022-07-28T07:47:42.678Z,71.86
2022-07-28T07:50:09.572Z,71.68
2022-07-28T07:52:36.239Z,70.70
2022-07-28T07:55:03.815Z,70.80
2022-07-28T07:57:30.519Z,70.16
2022-07-28T07:59:57.162Z,69.79
2022-07-28T08:02:23.813Z,68.87
2022-07-28T08:04:50.591Z,69.10
2022-07-28T08:07:17.898Z,67.79
2022-07-28T08:09:48.717Z,67.14
2022-07-28T08:12:15.360Z,68.68
2022-07-28T08:14:42.183Z,66.88
2022-07-28T08:17:14.635Z,68.52
2022-07-28T08:19:41.518Z,67.62
2022-07-28T08:22:08.217Z,68.86
2022-07-28T08:24:34.986Z,69.23
2022-07-28T08:27:05.365Z,67.21
2022-07-28T08:29:32.493Z,67.13
2022-07-28T08:31:59.248Z,68.18
2022-07-28T08:34:31.201Z,68.27
2022-07-28T08:37:01.329Z,67.99
2022-07-28T08:39:28.060Z,67.71
2022-07-28T08:42:12.103Z,69.92
2022-07-28T08:44:54.845Z,67.01
2022-07-28T08:47:22.296Z,66.81
2022-07-28T08:49:50.028Z,66.92
2022-07-28T08:52:20.552Z,67.81
2022-07-28T08:54:49.598Z,66.00
2022-07-28T08:57:20.353Z,66.10
2022-07-28T08:59:49.007Z,65.83
2022-07-28T09:02:16.301Z,64.96
2022-07-28T09:04:46.204Z,66.12
2022-07-28T09:07:13.491Z,66.22
2022-07-28T09:12:07.200Z,65.61
2022-07-28T09:14:34.596Z,65.84
2022-07-28T09:17:02.735Z,67.15
2022-07-28T09:19:34.064Z,65.90
2022-07-28T09:22:02.353Z,65.35
2022-07-28T09:24:44.449Z,65.38
2022-07-28T09:27:13.362Z,65.08
2022-07-28T09:29:42.051Z,65.98
2022-07-28T09:32:09.017Z,63.68
2022-07-28T09:34:46.733Z,64.67
2022-07-28T09:37:28.607Z,66.01
2022-07-28T09:39:59.639Z,65.02
2022-07-28T09:42:26.546Z,65.55
2022-07-28T09:45:22.258Z,65.30
2022-07-28T09:47:50.104Z,64.36
2022-07-28T09:50:21.915Z,65.45
2022-07-28T09:52:48.675Z,64.94
2022-07-28T09:55:15.405Z,65.76
2022-07-28T09:57:45.781Z,64.49
2022-07-28T10:00:28.293Z,64.65
2022-07-28T10:02:55.610Z,64.93
2022-07-28T10:05:22.404Z,64.18
2022-07-28T10:07:52.954Z,63.74
2022-07-28T10:10:22.671Z,64.48
2022-07-28T10:12:49.400Z,63.94
2022-07-28T10:15:36.702Z,63.11
2022-07-28T10:18:05.095Z,63.58
2022-07-28T10:20:33.052Z,64.68
2022-07-28T10:23:09.481Z,66.00
2022-07-28T10:25:40.459Z,64.22
2022-07-28T10:28:10.199Z,63.48
2022-07-28T10:30:40.070Z,64.25
2022-07-28T10:33:13.886Z,63.89
2022-07-28T10:35:54.242Z,63.21
2022-07-28T10:38:23.921Z,63.47
2022-07-28T10:40:52.439Z,63.48
2022-07-28T10:43:20.243Z,66.15
2022-07-28T10:46:05.073Z,62.48
2022-07-28T10:48:33.794Z,63.30
2022-07-28T10:51:01.411Z,63.69
2022-07-28T10:54:00.119Z,62.45
2022-07-28T10:56:41.335Z,63.95
2022-07-28T10:59:39.547Z,63.77
2022-07-28T11:02:06.482Z,63.02
2022-07-28T11:04:52.291Z,62.07
2022-07-28T11:07:20.667Z,61.42
2022-07-28T11:09:47.609Z,62.29
2022-07-28T11:12:18.007Z,63.25
2022-07-28T11:14:44.991Z,62.30
2022-07-28T11:17:16.996Z,61.99
2022-07-28T11:20:16.896Z,61.28
2022-07-28T11:22:42.787Z,60.94
2022-07-28T11:25:19.577Z,61.43
2022-07-28T11:28:08.742Z,61.08
2022-07-28T11:30:53.339Z,62.65
2022-07-28T11:33:20.560Z,61.56
2022-07-28T11:35:47.327Z,61.92
2022-07-28T11:38:14.719Z,61.08
2022-07-28T11:40:50.018Z,60.58
2022-07-28T11:43:36.876Z,60.65
2022-07-28T11:46:24.957Z,60.05
2022-07-28T11:49:16.876Z,60.17
2022-07-28T11:52:07.177Z,61.67
2022-07-28T11:54:35.609Z,60.02
2022-07-28T11:57:04.211Z,60.86
2022-07-28T11:59:44.439Z,59.61
2022-07-28T12:02:27.031Z,60.16
2022-07-28T12:04:59.010Z,59.52
2022-07-28T12:07:32.893Z,59.41
2022-07-28T12:10:00.383Z,60.14
2022-07-28T12:12:30.579Z,59.47
2022-07-28T12:15:00.926Z,59.94
2022-07-28T12:17:34.157Z,59.32
2022-07-28T12:20:11.577Z,59.41
2022-07-28T12:22:40.982Z,59.30
2022-07-28T12:25:13.367Z,58.98
2022-07-28T12:27:40.564Z,59.60
2022-07-28T12:30:13.600Z,58.41
2022-07-28T12:32:42.344Z,59.67
2022-07-28T12:35:09.680Z,58.24
2022-07-28T12:37:36.442Z,58.82
2022-07-28T12:40:03.570Z,58.34
2022-07-28T12:42:33.197Z,58.58
2022-07-28T12:45:03.460Z,58.24
2022-07-28T12:47:31.531Z,58.15
2022-07-28T12:50:15.752Z,58.11
2022-07-28T12:52:43.850Z,58.50
2022-07-28T12:55:29.231Z,58.83
2022-07-28T12:57:55.923Z,58.19
2022-07-28T13:00:26.311Z,57.65
2022-07-28T13:02:56.266Z,58.61
2022-07-28T13:05:58.326Z,57.79
2022-07-28T13:08:27.594Z,58.22
2022-07-28T13:10:58.640Z,57.80
2022-07-28T13:13:26.774Z,58.07
2022-07-28T13:16:22.290Z,57.42
2022-07-28T13:18:54.195Z,57.32
2022-07-28T13:21:57.143Z,56.97
2022-07-28T13:24:27.774Z,57.14
2022-07-28T13:26:55.082Z,57.62
2022-07-28T13:29:22.546Z,57.25
2022-07-28T13:31:49.437Z,58.02
2022-07-28T13:34:16.725Z,57.92
2022-07-28T13:36:43.675Z,58.16
2022-07-28T13:39:14.236Z,57.59
2022-07-28T13:41:57.276Z,56.32
2022-07-28T13:44:25.746Z,56.30
2022-07-28T13:46:53.265Z,56.39
2022-07-28T13:49:22.798Z,56.50
2022-07-28T13:51:51.244Z,56.33
2022-07-28T13:54:19.028Z,56.72
2022-07-28T13:56:46.574Z,56.33
2022-07-28T13:59:13.780Z,57.32
2022-07-28T14:01:42.468Z,57.61
2022-07-28T14:04:16.776Z,57.16
2022-07-28T14:06:45.363Z,56.15
2022-07-28T14:09:13.022Z,55.42
2022-07-28T14:11:49.932Z,55.71
2022-07-28T14:14:20.440Z,55.66
2022-07-28T14:16:54.536Z,55.35
2022-07-28T14:19:38.289Z,56.25
2022-07-28T14:22:12.194Z,56.18
2022-07-28T14:24:39.066Z,57.21
2022-07-28T14:27:05.742Z,56.34
2022-07-28T14:29:32.867Z,56.98
2022-07-28T14:31:59.620Z,56.13
2022-07-28T14:34:26.416Z,56.88
2022-07-28T14:36:53.175Z,55.03
2022-07-28T14:39:20.190Z,56.12
2022-07-28T14:41:46.928Z,55.80
2022-07-28T14:44:24.545Z,55.58
2022-07-28T14:46:51.857Z,56.23
2022-07-28T14:49:18.947Z,56.63
2022-07-28T14:51:45.967Z,55.79
2022-07-28T14:54:13.198Z,55.96
2022-07-28T14:56:40.386Z,55.74
2022-07-28T14:59:07.274Z,54.91
2022-07-28T15:01:35.990Z,54.92
2022-07-28T15:04:03.219Z,55.87
2022-07-28T15:06:29.887Z,55.56
2022-07-28T15:08:57.844Z,55.63
2022-07-28T15:11:24.872Z,55.14
2022-07-28T15:13:51.736Z,55.31
2022-07-28T15:16:18.606Z,56.36
2022-07-28T15:18:45.359Z,55.76
2022-07-28T15:21:16.507Z,55.74
2022-07-28T15:23:43.691Z,55.82
2022-07-28T15:26:10.849Z,55.64
2022-07-28T15:28:37.826Z,54.89
2022-07-28T15:31:06.700Z,55.45
2022-07-28T15:33:41.104Z,56.18
2022-07-28T15:36:15.828Z,56.15
2022-07-28T15:38:47.036Z,56.41
2022-07-28T15:41:15.118Z,55.96
2022-07-28T15:43:42.248Z,56.07
2022-07-28T15:46:11.757Z,55.78
2022-07-28T15:48:41.558Z,55.91
2022-07-28T15:51:09.091Z,56.35
2022-07-28T15:53:36.669Z,56.40
2022-07-28T15:56:04.495Z,56.12
2022-07-28T15:58:31.573Z,55.70
2022-07-28T16:01:01.021Z,55.74
2022-07-28T16:03:29.476Z,55.13
2022-07-28T16:05:56.328Z,55.88
2022-07-28T16:08:23.897Z,56.25
2022-07-28T16:10:52.973Z,56.45
2022-07-28T16:13:36.203Z,56.46
2022-07-28T16:16:12.571Z,56.82
2022-07-28T16:18:42.477Z,55.49
2022-07-28T16:21:10.704Z,55.79
2022-07-28T16:23:37.423Z,55.50
2022-07-28T16:26:07.781Z,55.31
2022-07-28T16:28:34.985Z,56.07
2022-07-28T16:31:01.753Z,55.86
2022-07-28T16:33:33.101Z,55.93
2022-07-28T16:36:00.451Z,55.65
2022-07-28T16:38:27.343Z,56.21
2022-07-28T16:40:54.072Z,55.89
2022-07-28T16:43:20.772Z,55.89
2022-07-28T16:45:47.384Z,56.54
2022-07-28T16:48:14.094Z,56.14
2022-07-28T16:50:45.783Z,55.77
2022-07-28T16:53:13.849Z,55.99
2022-07-28T16:55:42.223Z,55.24
2022-07-28T16:58:09.146Z,55.57
2022-07-28T17:00:36.006Z,55.54
2022-07-28T17:03:02.722Z,55.99
2022-07-28T17:05:29.424Z,55.92
2022-07-28T17:07:56.133Z,55.86
2022-07-28T17:10:26.431Z,56.41
2022-07-28T17:12:54.606Z,56.58
2022-07-28T17:15:22.861Z,56.98
2022-07-28T17:17:53.254Z,57.09
2022-07-28T17:20:20.929Z,57.67
2022-07-28T17:22:48.089Z,57.82
2022-07-28T17:28:02.014Z,57.32
2022-07-28T17:30:30.364Z,57.70
2022-07-28T17:32:59.238Z,57.04
2022-07-28T17:35:34.196Z,57.77
2022-07-28T17:38:03.634Z,58.22
2022-07-28T17:40:30.900Z,57.63
2022-07-28T17:42:57.636Z,57.88
2022-07-28T17:45:24.845Z,58.04
2022-07-28T17:47:52.297Z,58.56
2022-07-28T17:50:19.417Z,58.80
2022-07-28T17:52:46.669Z,59.35
2022-07-28T17:55:55.729Z,58.84
2022-07-28T17:58:26.295Z,58.83
2022-07-28T18:00:58.058Z,58.52
2022-07-28T18:03:27.285Z,58.76
2022-07-28T18:05:54.289Z,58.46
2022-07-28T18:08:21.130Z,58.74
2022-07-28T18:10:50.519Z,58.79
2022-07-28T18:13:17.926Z,59.23
2022-07-28T18:15:44.846Z,59.14
2022-07-28T18:18:11.700Z,59.16
2022-07-28T18:20:39.045Z,59.28
2022-07-28T18:23:07.033Z,59.88
2022-07-28T18:25:34.649Z,59.89
2022-07-28T18:28:01.707Z,59.54
2022-07-28T18:30:29.171Z,59.12
2022-07-28T18:32:55.981Z,59.93
2022-07-28T18:35:23.123Z,59.78
2022-07-28T18:37:50.253Z,59.13
2022-07-28T18:40:18.626Z,59.16
2022-07-28T18:42:46.322Z,59.29
2022-07-28T18:45:13.709Z,59.91
2022-07-28T18:47:47.341Z,59.76
2022-07-28T18:50:28.009Z,59.68
2022-07-28T18:52:59.189Z,59.87
2022-07-28T18:55:26.055Z,60.16
2022-07-28T18:57:52.705Z,60.22
2022-07-28T19:00:19.613Z,59.87
2022-07-28T19:02:46.412Z,60.20
2022-07-28T19:05:13.235Z,60.27
2022-07-28T19:07:40.067Z,59.94
2022-07-28T19:10:07.623Z,60.50
2022-07-28T19:12:34.540Z,60.84
2022-07-28T19:15:01.731Z,60.99
2022-07-28T19:17:28.930Z,61.16
2022-07-28T19:19:56.333Z,61.27
2022-07-28T19:22:24.041Z,61.31
2022-07-28T19:24:51.933Z,61.62
2022-07-28T19:27:19.221Z,61.69
2022-07-28T19:29:45.943Z,61.56
2022-07-28T19:32:12.693Z,61.62
2022-07-28T19:34:39.417Z,61.88
2022-07-28T19:37:06.627Z,61.91
2022-07-28T19:39:34.502Z,61.87
2022-07-28T19:42:01.200Z,62.27
2022-07-28T19:44:30.099Z,62.34
2022-07-28T19:47:00.455Z,62.46
2022-07-28T19:49:27.246Z,62.80
2022-07-28T19:51:54.946Z,62.76
2022-07-28T19:54:23.271Z,62.86
2022-07-28T19:56:50.137Z,62.81
2022-07-28T19:59:16.846Z,62.86
2022-07-28T20:01:46.689Z,62.78
2022-07-28T20:04:13.809Z,62.73
2022-07-28T20:06:40.531Z,63.01
2022-07-28T20:09:07.246Z,63.00
2022-07-28T20:11:33.996Z,63.02
2022-07-28T20:14:01.094Z,62.74
2022-07-28T20:16:28.207Z,62.79
2022-07-28T20:18:56.820Z,63.00
2022-07-28T20:21:24.893Z,63.08
2022-07-28T20:23:55.054Z,63.46
2022-07-28T20:26:23.748Z,63.39
2022-07-28T20:28:50.810Z,63.50
2022-07-28T20:31:17.614Z,63.60
2022-07-28T20:33:44.579Z,63.84
2022-07-28T20:36:11.272Z,64.00
2022-07-28T20:38:39.498Z,64.29
2022-07-28T20:41:07.315Z,64.07
2022-07-28T20:43:36.439Z,64.40
2022-07-28T20:46:05.331Z,65.16
2022-07-28T20:48:32.264Z,64.98
2022-07-28T20:50:58.909Z,64.92
2022-07-28T20:53:25.503Z,65.53
2022-07-28T20:55:52.136Z,64.73
2022-07-28T20:58:18.785Z,64.92
2022-07-28T21:00:45.518Z,65.22
2022-07-28T21:03:12.239Z,65.02
2022-07-28T21:05:39.220Z,65.11
2022-07-28T21:08:09.298Z,65.08
2022-07-28T21:10:42.735Z,65.41
2022-07-28T21:13:09.351Z,64.86
2022-07-28T21:15:36.107Z,65.12
2022-07-28T21:18:03.012Z,65.06
2022-07-28T21:20:30.013Z,65.46
2022-07-28T21:22:56.721Z,65.12
2022-07-28T21:25:23.449Z,65.15
2022-07-28T21:28:08.803Z,65.39
2022-07-28T21:30:35.481Z,65.21
2022-07-28T21:33:02.175Z,65.00
2022-07-28T21:35:29.498Z,65.19
2022-07-28T21:37:56.356Z,65.37
2022-07-28T21:40:23.202Z,65.33
2022-07-28T21:42:49.977Z,64.72
2022-07-28T21:45:16.836Z,65.12
2022-07-28T21:47:43.615Z,65.07
2022-07-28T21:50:10.908Z,65.06
2022-07-28T21:52:38.646Z,64.96
2022-07-28T21:55:07.114Z,64.94
2022-07-28T21:57:34.630Z,64.89
2022-07-28T22:00:02.211Z,64.59
2022-07-28T22:02:28.877Z,64.79
2022-07-28T22:04:55.894Z,64.67
2022-07-28T22:07:22.607Z,64.23
2022-07-28T22:09:49.243Z,64.57
2022-07-28T22:12:15.874Z,64.76
2022-07-28T22:14:42.630Z,64.46
2022-07-28T22:17:09.447Z,64.22
2022-07-28T22:19:37.079Z,64.38
2022-07-28T22:22:04.016Z,65.00
2022-07-28T22:24:30.716Z,64.80
2022-07-28T22:26:57.657Z,65.07
2022-07-28T22:29:25.028Z,64.88
2022-07-28T22:31:54.788Z,65.43
2022-07-28T22:34:25.877Z,65.40
2022-07-28T22:36:52.795Z,65.57
2022-07-28T22:39:19.719Z,65.82
2022-07-28T22:41:47.959Z,66.06
2022-07-28T22:44:15.220Z,66.30
2022-07-28T22:46:42.108Z,66.59
2022-07-28T22:49:09.221Z,66.86
2022-07-28T22:51:35.942Z,66.70
2022-07-28T22:54:02.571Z,66.96
2022-07-28T22:56:36.382Z,67.33
2022-07-28T22:59:04.779Z,66.44
2022-07-28T23:01:31.583Z,66.61
2022-07-28T23:03:58.516Z,66.16
2022-07-28T23:06:25.279Z,65.95
2022-07-28T23:08:51.988Z,66.36
2022-07-28T23:11:18.679Z,66.28
2022-07-28T23:13:45.354Z,66.52
2022-07-28T23:16:13.971Z,66.67
2022-07-28T23:18:42.086Z,66.88
2022-07-28T23:21:09.049Z,68.22
2022-07-28T23:23:35.872Z,68.87
2022-07-28T23:26:03.535Z,70.35
2022-07-28T23:28:30.567Z,70.65
2022-07-28T23:30:57.675Z,71.07
2022-07-28T23:33:55.290Z,71.82
2022-07-28T23:36:17.025Z,72.52
2022-07-28T23:38:53.838Z,73.78
2022-07-28T23:41:20.511Z,73.81
2022-07-28T23:43:47.167Z,74.01
2022-07-28T23:46:13.849Z,74.36
2022-07-28T23:48:40.609Z,75.50
2022-07-28T23:51:07.347Z,75.92
2022-07-28T23:53:37.403Z,76.60
2022-07-28T23:56:04.482Z,76.31
2022-07-28T23:58:31.148Z,75.64
